createdAt,value
2019-01-13T00:00:23.931Z,14.33
2019-01-13T00:02:51.188Z,15.03
2019-01-13T00:05:18.882Z,14.20
2019-01-13T00:07:49.866Z,14.20
2019-01-13T00:10:18.212Z,13.90
2019-01-13T00:12:46.472Z,14.03
2019-01-13T00:15:14.912Z,15.90
2019-01-13T00:17:43.461Z,15.77
2019-01-13T00:20:16.006Z,14.50
2019-01-13T00:22:44.041Z,14.37
2019-01-13T00:25:12.795Z,14.63
2019-01-13T00:27:41.150Z,15.30
2019-01-13T00:30:18.844Z,14.50
2019-01-13T00:32:42.694Z,14.90
2019-01-13T00:35:10.114Z,16.23
2019-01-13T00:37:37.634Z,16.47
2019-01-13T00:40:09.143Z,15.47
2019-01-13T00:42:37.309Z,16.70
2019-01-13T00:45:09.862Z,17.73
2019-01-13T00:47:38.109Z,17.27
2019-01-13T00:50:09.954Z,17.00
2019-01-13T00:52:38.150Z,17.87
2019-01-13T00:55:07.262Z,17.13
2019-01-13T00:57:38.691Z,18.20
2019-01-13T01:00:11.009Z,16.33
2019-01-13T01:02:38.543Z,18.30
2019-01-13T01:05:07.317Z,17.40
2019-01-13T01:07:37.659Z,17.00
2019-01-13T01:10:08.461Z,17.77
2019-01-13T01:12:36.632Z,18.80
2019-01-13T01:15:06.145Z,17.90
2019-01-13T01:17:34.865Z,17.87
2019-01-13T01:20:04.430Z,19.30
2019-01-13T01:22:31.804Z,17.53
2019-01-13T01:24:59.023Z,18.20
2019-01-13T01:27:26.134Z,17.17
2019-01-13T01:29:57.422Z,18.40
2019-01-13T01:32:26.261Z,18.27
2019-01-13T01:34:54.982Z,18.57
2019-01-13T01:37:23.074Z,18.87
2019-01-13T01:39:50.986Z,18.97
2019-01-13T01:42:19.142Z,17.67
2019-01-13T01:44:47.445Z,18.37
2019-01-13T01:47:16.157Z,18.67
2019-01-13T01:49:44.683Z,17.67
2019-01-13T01:52:11.805Z,20.70
2019-01-13T01:54:38.853Z,18.43
2019-01-13T01:57:06.446Z,18.73
2019-01-13T01:59:33.799Z,19.00
2019-01-13T02:02:01.834Z,21.50
2019-01-13T02:04:29.981Z,21.77
2019-01-13T02:06:58.506Z,23.83
2019-01-13T02:09:26.879Z,22.07
2019-01-13T02:11:55.595Z,24.70
2019-01-13T02:14:23.700Z,24.37
2019-01-13T02:16:51.810Z,25.50
2019-01-13T02:19:20.313Z,26.37
2019-01-13T02:21:48.794Z,26.33
2019-01-13T02:24:16.452Z,25.23
2019-01-13T02:26:43.359Z,22.77
2019-01-13T02:29:10.370Z,22.03
2019-01-13T02:31:38.252Z,23.17
2019-01-13T02:34:06.232Z,23.40
2019-01-13T02:36:34.125Z,21.90
2019-01-13T02:39:04.065Z,23.67
2019-01-13T02:41:32.121Z,23.07
2019-01-13T02:44:00.133Z,24.73
2019-01-13T02:46:28.167Z,24.43
2019-01-13T02:48:56.074Z,26.50
2019-01-13T02:51:24.018Z,25.70
2019-01-13T02:53:51.922Z,24.40
2019-01-13T02:56:19.030Z,24.20
2019-01-13T02:58:45.982Z,23.60
2019-01-13T03:01:13.255Z,26.10
2019-01-13T03:03:40.177Z,26.50
2019-01-13T03:06:08.771Z,25.33
2019-01-13T03:08:37.014Z,25.97
2019-01-13T03:11:05.370Z,26.37
2019-01-13T03:13:33.912Z,27.17
2019-01-13T03:16:01.845Z,24.40
2019-01-13T03:18:30.180Z,25.20
2019-01-13T03:20:58.334Z,24.00
2019-01-13T03:23:26.678Z,23.60
2019-01-13T03:25:55.046Z,24.53
2019-01-13T03:28:22.176Z,22.13
2019-01-13T03:30:49.974Z,23.47
2019-01-13T03:33:17.632Z,24.37
2019-01-13T03:35:46.132Z,24.73
2019-01-13T03:38:14.377Z,23.63
2019-01-13T03:40:42.750Z,23.10
2019-01-13T03:43:11.105Z,22.87
2019-01-13T03:45:39.129Z,23.17
2019-01-13T03:48:07.517Z,22.60
2019-01-13T03:50:35.790Z,20.63
2019-01-13T03:53:04.142Z,20.63
2019-01-13T03:55:32.376Z,20.70
2019-01-13T03:57:59.725Z,19.10
2019-01-13T04:00:27.238Z,17.50
2019-01-13T04:02:54.607Z,15.07
2019-01-13T04:05:21.914Z,17.43
2019-01-13T04:07:50.627Z,16.13
2019-01-13T04:10:19.217Z,15.07
2019-01-13T04:12:47.915Z,12.33
2019-01-13T04:15:57.572Z,13.33
2019-01-13T04:18:26.198Z,11.23
2019-01-13T04:20:54.557Z,10.13
2019-01-13T04:23:23.577Z,10.63
2019-01-13T04:25:52.086Z,10.60
2019-01-13T04:28:20.361Z,9.10
2019-01-13T04:30:48.370Z,9.97
2019-01-13T04:33:16.810Z,10.20
2019-01-13T04:35:45.474Z,10.83
2019-01-13T04:38:13.894Z,10.10
2019-01-13T04:40:41.292Z,11.53
2019-01-13T04:43:09.040Z,12.27
2019-01-13T04:45:36.450Z,11.97
2019-01-13T04:48:03.925Z,12.77
2019-01-13T04:50:31.522Z,11.73
2019-01-13T04:53:04.382Z,12.00
2019-01-13T04:55:33.062Z,12.63
2019-01-13T04:58:01.069Z,12.23
2019-01-13T05:00:29.422Z,13.93
2019-01-13T05:02:57.876Z,12.77
2019-01-13T05:05:26.135Z,14.80
2019-01-13T05:07:54.294Z,15.83
2019-01-13T05:10:22.307Z,15.67
2019-01-13T05:12:50.905Z,15.40
2019-01-13T05:15:18.253Z,14.57
2019-01-13T05:17:45.276Z,16.00
2019-01-13T05:20:14.240Z,17.60
2019-01-13T05:22:41.347Z,17.27
2019-01-13T05:25:09.473Z,17.50
2019-01-13T05:27:37.477Z,19.23
2019-01-13T05:30:09.253Z,18.90
2019-01-13T05:32:38.493Z,19.40
2019-01-13T05:35:06.604Z,21.63
2019-01-13T05:37:34.517Z,19.40
2019-01-13T05:40:03.998Z,20.80
2019-01-13T05:42:32.145Z,19.77
2019-01-13T05:45:00.293Z,20.87
2019-01-13T05:47:27.318Z,19.87
2019-01-13T05:49:54.330Z,21.70
2019-01-13T05:52:21.457Z,20.37
2019-01-13T05:54:48.573Z,21.07
2019-01-13T05:57:16.479Z,19.67
2019-01-13T05:59:44.397Z,21.00
2019-01-13T06:02:12.291Z,21.27
2019-01-13T06:04:40.406Z,20.87
2019-01-13T06:07:08.324Z,20.90
2019-01-13T06:09:36.238Z,21.07
2019-01-13T06:12:04.237Z,18.87
2019-01-13T06:14:32.214Z,19.13
2019-01-13T06:17:00.208Z,17.77
2019-01-13T06:19:27.240Z,19.17
2019-01-13T06:21:54.145Z,17.03
2019-01-13T06:24:21.037Z,17.37
2019-01-13T06:26:47.954Z,17.80
2019-01-13T06:29:18.573Z,15.47
2019-01-13T06:31:46.490Z,15.17
2019-01-13T06:34:14.498Z,13.93
2019-01-13T06:36:42.525Z,13.50
2019-01-13T06:39:10.434Z,13.50
2019-01-13T06:41:38.423Z,12.13
2019-01-13T06:44:06.512Z,11.93
2019-01-13T06:46:34.619Z,10.30
2019-01-13T06:49:01.955Z,10.07
2019-01-13T06:51:28.944Z,9.67
2019-01-13T06:53:57.006Z,8.80
2019-01-13T06:56:24.114Z,8.40
2019-01-13T06:58:54.821Z,8.53
2019-01-13T07:01:22.930Z,7.93
2019-01-13T07:03:51.009Z,8.03
2019-01-13T07:06:19.643Z,7.57
2019-01-13T07:08:48.814Z,6.57
2019-01-13T07:11:16.969Z,7.10
2019-01-13T07:13:45.121Z,6.37
2019-01-13T07:16:13.372Z,6.47
2019-01-13T07:18:41.269Z,7.17
2019-01-13T07:21:09.615Z,6.07
2019-01-13T07:23:36.833Z,6.80
2019-01-13T07:26:04.853Z,5.80
2019-01-13T07:28:34.297Z,6.03
2019-01-13T07:31:02.653Z,5.93
2019-01-13T07:33:31.167Z,5.60
2019-01-13T07:35:59.416Z,6.20
2019-01-13T07:38:28.254Z,5.50
2019-01-13T07:40:56.762Z,5.10
2019-01-13T07:43:25.025Z,6.13
2019-01-13T07:45:53.178Z,6.00
2019-01-13T07:48:20.783Z,5.10
2019-01-13T07:50:48.172Z,6.00
2019-01-13T07:53:15.417Z,6.30
2019-01-13T07:55:42.562Z,6.57
2019-01-13T07:58:10.768Z,5.60
2019-01-13T08:00:39.027Z,6.17
2019-01-13T08:03:07.630Z,6.50
2019-01-13T08:05:35.988Z,5.90
2019-01-13T08:08:03.995Z,6.33
2019-01-13T08:10:32.598Z,6.93
2019-01-13T08:13:00.992Z,6.13
2019-01-13T08:15:29.089Z,6.73
2019-01-13T08:17:58.905Z,7.00
2019-01-13T08:20:31.015Z,8.27
2019-01-13T08:22:58.625Z,7.60
2019-01-13T08:25:26.021Z,7.73
2019-01-13T08:27:54.644Z,7.87
2019-01-13T08:30:23.066Z,7.53
2019-01-13T08:32:51.714Z,7.73
2019-01-13T08:35:20.158Z,8.70
2019-01-13T08:37:48.317Z,9.13
2019-01-13T08:40:18.849Z,8.83
2019-01-13T08:42:47.351Z,8.77
2019-01-13T08:45:14.858Z,8.20
2019-01-13T08:47:42.610Z,9.50
2019-01-13T08:50:15.586Z,9.40
2019-01-13T08:52:42.591Z,9.10
2019-01-13T08:55:10.197Z,9.73
2019-01-13T08:57:37.854Z,9.60
2019-01-13T09:00:11.710Z,10.20
2019-01-13T09:02:39.862Z,8.33
2019-01-13T09:05:08.139Z,10.27
2019-01-13T09:07:36.457Z,10.43
2019-01-13T09:10:06.705Z,10.80
2019-01-13T09:12:34.734Z,10.20
2019-01-13T09:15:05.262Z,10.00
2019-01-13T09:17:33.377Z,11.43
2019-01-13T09:20:01.285Z,11.07
2019-01-13T09:22:28.604Z,11.90
2019-01-13T09:24:55.741Z,12.20
2019-01-13T09:27:23.514Z,11.67
2019-01-13T09:29:51.661Z,13.60
2019-01-13T09:32:19.578Z,11.10
2019-01-13T09:34:47.801Z,11.47
2019-01-13T09:37:15.918Z,11.80
2019-01-13T09:39:44.094Z,12.77
2019-01-13T09:42:12.373Z,13.63
2019-01-13T09:44:40.626Z,12.80
2019-01-13T09:47:08.889Z,12.70
2019-01-13T09:49:37.651Z,13.33
2019-01-13T09:52:05.109Z,13.43
2019-01-13T09:54:32.525Z,14.73
2019-01-13T09:57:00.555Z,13.87
2019-01-13T09:59:28.426Z,13.60
2019-01-13T10:01:56.542Z,12.57
2019-01-13T10:04:24.717Z,14.57
2019-01-13T10:06:52.635Z,15.63
2019-01-13T10:09:20.557Z,15.40
2019-01-13T10:11:48.613Z,15.40
2019-01-13T10:14:16.629Z,17.77
2019-01-13T10:16:46.226Z,16.47
2019-01-13T10:19:13.283Z,18.50
2019-01-13T10:21:40.463Z,19.23
2019-01-13T10:24:07.619Z,17.60
2019-01-13T10:26:35.621Z,20.40
2019-01-13T10:29:03.849Z,19.43
2019-01-13T10:31:31.877Z,19.40
2019-01-13T10:34:02.649Z,19.23
2019-01-13T10:36:30.661Z,18.83
2019-01-13T10:38:59.208Z,18.73
2019-01-13T10:41:27.426Z,21.10
2019-01-13T10:43:55.334Z,19.00
2019-01-13T10:46:23.774Z,20.50
2019-01-13T10:48:51.025Z,20.00
2019-01-13T10:51:19.018Z,18.70
2019-01-13T10:53:46.281Z,19.43
2019-01-13T10:56:13.314Z,20.30
2019-01-13T10:58:40.314Z,19.90
2019-01-13T11:01:08.659Z,20.87
2019-01-13T11:03:36.678Z,21.50
2019-01-13T11:06:04.823Z,19.60
2019-01-13T11:08:33.030Z,18.57
2019-01-13T11:11:01.239Z,17.83
2019-01-13T11:13:29.242Z,17.50
2019-01-13T11:15:57.396Z,20.43
2019-01-13T11:18:25.324Z,16.30
2019-01-13T11:20:52.325Z,16.10
2019-01-13T11:23:19.329Z,15.70
2019-01-13T11:25:46.333Z,16.17
2019-01-13T11:28:13.585Z,13.50
2019-01-13T11:30:41.742Z,16.33
2019-01-13T11:33:10.016Z,16.33
2019-01-13T11:35:38.242Z,15.67
2019-01-13T11:38:07.026Z,15.50
2019-01-13T11:40:35.144Z,15.40
2019-01-13T11:43:03.358Z,16.57
2019-01-13T11:45:31.546Z,14.30
2019-01-13T11:47:59.910Z,15.27
2019-01-13T11:50:28.932Z,15.10
2019-01-13T11:52:56.462Z,15.10
2019-01-13T11:55:23.977Z,15.30
2019-01-13T11:58:02.949Z,14.97
2019-01-13T12:00:38.893Z,12.83
2019-01-13T12:03:07.037Z,12.70
2019-01-13T12:05:34.630Z,12.13
2019-01-13T12:08:03.497Z,13.40
2019-01-13T12:10:32.446Z,13.53
2019-01-13T12:13:00.550Z,13.20
2019-01-13T12:15:28.919Z,12.60
2019-01-13T12:18:02.285Z,12.30
2019-01-13T12:20:30.429Z,12.30
2019-01-13T12:22:58.830Z,11.47
2019-01-13T12:25:26.997Z,13.10
2019-01-13T12:27:56.542Z,9.90
2019-01-13T12:30:26.416Z,11.60
2019-01-13T12:32:54.132Z,10.10
2019-01-13T12:35:22.013Z,10.30
2019-01-13T12:37:49.775Z,10.77
2019-01-13T12:40:19.371Z,12.50
2019-01-13T12:42:48.250Z,11.80
2019-01-13T12:45:19.128Z,10.20
2019-01-13T12:47:47.250Z,9.20
2019-01-13T12:50:17.709Z,11.47
2019-01-13T12:52:46.258Z,11.87
2019-01-13T12:55:14.832Z,12.60
2019-01-13T12:57:42.264Z,11.37
2019-01-13T13:00:11.654Z,13.67
2019-01-13T13:02:39.116Z,11.33
2019-01-13T13:05:07.495Z,13.13
2019-01-13T13:07:34.410Z,10.80
2019-01-13T13:10:08.180Z,12.07
2019-01-13T13:12:36.427Z,12.40
2019-01-13T13:15:06.130Z,11.83
2019-01-13T13:17:34.565Z,11.60
2019-01-13T13:20:04.230Z,11.47
2019-01-13T13:22:32.274Z,11.17
2019-01-13T13:25:01.980Z,10.50
2019-01-13T13:27:31.273Z,11.83
2019-01-13T13:29:58.606Z,11.17
2019-01-13T13:32:26.409Z,11.90
2019-01-13T13:34:55.858Z,10.40
2019-01-13T13:37:25.648Z,10.10
2019-01-13T13:39:54.787Z,12.40
2019-01-13T13:42:24.017Z,10.10
2019-01-13T13:46:04.832Z,10.40
2019-01-13T13:48:50.959Z,10.87
2019-01-13T13:51:21.841Z,11.10
2019-01-13T13:53:50.007Z,11.00
2019-01-13T13:56:18.965Z,10.63
2019-01-13T13:58:48.252Z,11.83
2019-01-13T14:01:18.598Z,10.60
2019-01-13T14:03:47.410Z,10.23
2019-01-13T14:06:19.510Z,10.67
2019-01-13T14:08:48.349Z,10.97
2019-01-13T14:11:17.531Z,10.27
2019-01-13T14:13:46.447Z,11.10
2019-01-13T14:16:14.367Z,10.20
2019-01-13T14:18:42.254Z,11.60
2019-01-13T14:21:09.939Z,11.57
2019-01-13T14:23:40.656Z,12.63
2019-01-13T14:26:09.464Z,12.20
2019-01-13T14:28:41.364Z,10.77
2019-01-13T14:31:11.407Z,12.73
2019-01-13T14:33:43.810Z,11.90
2019-01-13T14:36:14.607Z,12.77
2019-01-13T14:38:43.743Z,12.93
2019-01-13T14:41:12.976Z,12.13
2019-01-13T14:43:41.606Z,11.30
2019-01-13T14:46:10.035Z,12.23
2019-01-13T14:48:38.920Z,10.90
2019-01-13T14:51:06.649Z,11.00
2019-01-13T14:53:34.542Z,11.60
2019-01-13T14:56:02.824Z,12.00
2019-01-13T14:58:31.395Z,11.13
2019-01-13T15:01:00.167Z,9.87
2019-01-13T15:03:28.706Z,11.20
2019-01-13T15:05:57.814Z,10.20
2019-01-13T15:08:26.523Z,9.80
2019-01-13T15:10:56.427Z,10.20
2019-01-13T15:13:24.565Z,9.60
2019-01-13T15:15:51.841Z,9.60
2019-01-13T15:18:19.167Z,9.60
2019-01-13T15:20:46.089Z,9.70
2019-01-13T15:23:13.997Z,11.33
2019-01-13T15:25:41.980Z,10.97
2019-01-13T15:28:10.502Z,10.03
2019-01-13T15:30:38.865Z,13.40
2019-01-13T15:33:07.880Z,11.63
2019-01-13T15:35:36.230Z,12.60
2019-01-13T15:38:04.896Z,12.73
2019-01-13T15:40:34.105Z,11.90
2019-01-13T15:43:07.865Z,11.80
2019-01-13T15:45:36.924Z,12.77
2019-01-13T15:48:05.554Z,13.43
2019-01-13T15:50:34.340Z,12.80
2019-01-13T15:53:03.381Z,13.20
2019-01-13T15:55:30.858Z,13.27
2019-01-13T15:58:02.730Z,14.03
2019-01-13T16:00:32.773Z,14.03
2019-01-13T16:03:01.217Z,13.03
2019-01-13T16:05:29.361Z,13.50
2019-01-13T16:07:58.576Z,13.80
2019-01-13T16:10:27.581Z,14.33
2019-01-13T16:12:56.225Z,14.50
2019-01-13T16:15:25.057Z,14.67
2019-01-13T16:17:52.962Z,14.27
2019-01-13T16:20:23.549Z,13.80
2019-01-13T16:22:50.954Z,15.90
2019-01-13T16:25:18.329Z,13.40
2019-01-13T16:27:48.361Z,14.50
2019-01-13T16:30:19.102Z,14.30
2019-01-13T16:32:47.667Z,13.83
2019-01-13T16:35:16.225Z,14.10
2019-01-13T16:37:44.876Z,13.50
2019-01-13T16:40:15.157Z,12.90
2019-01-13T16:42:44.649Z,13.67
2019-01-13T16:45:13.543Z,13.53
2019-01-13T16:47:41.985Z,13.87
2019-01-13T16:50:15.309Z,12.73
2019-01-13T16:52:46.833Z,13.13
2019-01-13T16:55:14.719Z,11.97
2019-01-13T16:57:44.688Z,11.57
2019-01-13T17:00:15.424Z,12.03
2019-01-13T17:02:43.640Z,11.53
2019-01-13T17:05:13.045Z,10.13
2019-01-13T17:07:42.451Z,10.30
2019-01-13T17:10:14.265Z,10.70
2019-01-13T17:12:42.380Z,10.43
2019-01-13T17:15:12.483Z,10.90
2019-01-13T17:17:40.580Z,11.63
2019-01-13T17:20:11.684Z,10.53
2019-01-13T17:22:40.009Z,12.00
2019-01-13T17:25:07.889Z,12.90
2019-01-13T17:27:34.799Z,11.27
2019-01-13T17:30:03.727Z,9.90
2019-01-13T17:32:30.925Z,9.40
2019-01-13T17:34:58.240Z,9.77
2019-01-13T17:37:26.231Z,8.50
2019-01-13T17:39:54.224Z,8.40
2019-01-13T17:42:22.338Z,9.20
2019-01-13T17:44:50.271Z,9.10
2019-01-13T17:47:18.830Z,9.17
2019-01-13T17:49:46.904Z,6.80
2019-01-13T17:52:15.221Z,3.10
2019-01-13T17:54:42.353Z,2.50
2019-01-13T17:57:09.657Z,3.27
2019-01-13T17:59:36.616Z,2.20
2019-01-13T18:02:05.134Z,2.40
2019-01-13T18:04:33.709Z,2.60
2019-01-13T18:07:01.617Z,2.00
2019-01-13T18:09:30.823Z,1.60
2019-01-13T18:11:59.489Z,2.33
2019-01-13T18:14:35.447Z,3.30
2019-01-13T18:17:17.308Z,2.20
2019-01-13T18:19:48.192Z,2.00
2019-01-13T18:22:19.553Z,1.80
2019-01-13T18:24:46.783Z,1.90
2019-01-13T18:27:14.265Z,2.33
2019-01-13T18:29:41.894Z,3.20
2019-01-13T18:32:13.151Z,2.83
2019-01-13T18:34:50.096Z,2.20
2019-01-13T18:37:13.814Z,2.30
2019-01-13T18:39:42.176Z,2.47
2019-01-13T18:42:10.171Z,2.57
2019-01-13T18:44:39.190Z,2.67
2019-01-13T18:47:08.090Z,2.80
2019-01-13T18:49:36.217Z,2.93
2019-01-13T18:52:03.948Z,2.90
2019-01-13T18:54:31.723Z,2.97
2019-01-13T18:56:59.010Z,2.97
2019-01-13T18:59:26.169Z,3.30
2019-01-13T19:01:53.489Z,2.63
2019-01-13T19:04:21.482Z,3.07
2019-01-13T19:06:49.614Z,3.97
2019-01-13T19:09:17.915Z,3.20
2019-01-13T19:11:49.419Z,3.10
2019-01-13T19:14:47.760Z,3.30
2019-01-13T19:17:23.925Z,3.40
2019-01-13T19:20:15.392Z,3.70
2019-01-13T19:22:45.716Z,3.57
2019-01-13T19:25:25.866Z,4.30
2019-01-13T19:27:54.239Z,4.10
2019-01-13T19:30:22.713Z,4.23
2019-01-13T19:32:50.770Z,3.83
2019-01-13T19:35:19.479Z,3.87
2019-01-13T19:37:47.676Z,5.57
2019-01-13T19:40:16.633Z,4.10
2019-01-13T19:42:45.897Z,4.00
2019-01-13T19:45:16.946Z,3.77
2019-01-13T19:47:45.893Z,3.50
2019-01-13T19:50:15.158Z,3.77
2019-01-13T19:52:42.313Z,2.77
2019-01-13T19:55:11.362Z,4.60
2019-01-13T19:57:39.538Z,3.60
2019-01-13T20:00:12.325Z,3.73
2019-01-13T20:02:40.224Z,3.63
2019-01-13T20:05:11.956Z,3.67
2019-01-13T20:07:38.261Z,3.80
2019-01-13T20:10:08.431Z,3.57
2019-01-13T20:12:36.700Z,3.30
2019-01-13T20:15:07.030Z,5.97
2019-01-13T20:17:35.462Z,3.80
2019-01-13T20:20:08.182Z,4.60
2019-01-13T20:22:35.480Z,4.57
2019-01-13T20:25:04.746Z,4.93
2019-01-13T20:27:31.813Z,3.80
2019-01-13T20:29:59.256Z,3.60
2019-01-13T20:32:27.247Z,3.03
2019-01-13T20:34:55.173Z,3.03
2019-01-13T20:37:23.513Z,3.00
2019-01-13T20:39:51.471Z,4.50
2019-01-13T20:42:20.029Z,4.00
2019-01-13T20:44:48.044Z,3.20
2019-01-13T20:47:16.049Z,3.20
2019-01-13T20:49:44.052Z,2.87
2019-01-13T20:52:12.163Z,2.87
2019-01-13T20:54:40.262Z,3.67
2019-01-13T20:57:08.525Z,4.37
2019-01-13T20:59:35.446Z,2.87
2019-01-13T21:02:02.572Z,4.40
2019-01-13T21:04:29.661Z,3.10
2019-01-13T21:06:56.574Z,3.37
2019-01-13T21:09:24.624Z,4.20
2019-01-13T21:11:52.898Z,4.40
2019-01-13T21:14:20.954Z,2.90
2019-01-13T21:16:49.617Z,3.17
2019-01-13T21:22:13.359Z,2.87
2019-01-13T21:24:42.450Z,4.07
2019-01-13T21:27:10.651Z,2.80
2019-01-13T21:29:38.651Z,3.03
2019-01-13T21:32:06.679Z,2.53
2019-01-13T21:34:34.874Z,3.33
2019-01-13T21:37:03.178Z,2.40
2019-01-13T21:39:30.299Z,3.17
2019-01-13T21:41:58.242Z,3.30
2019-01-13T21:44:26.600Z,2.73
2019-01-13T21:46:55.351Z,3.57
2019-01-13T21:49:23.833Z,3.10
2019-01-13T21:51:52.241Z,3.20
2019-01-13T21:54:21.161Z,2.80
2019-01-13T21:56:49.725Z,3.60
2019-01-13T21:59:17.844Z,3.90
2019-01-13T22:01:46.984Z,3.53
2019-01-13T22:04:15.833Z,3.17
2019-01-13T22:06:44.192Z,3.37
2019-01-13T22:09:11.682Z,3.57
2019-01-13T22:11:39.349Z,2.80
2019-01-13T22:14:09.604Z,3.40
2019-01-13T22:16:36.991Z,3.00
2019-01-13T22:19:05.466Z,2.63
2019-01-13T22:21:40.070Z,3.17
2019-01-13T22:24:08.648Z,2.70
2019-01-13T22:26:37.367Z,1.90
2019-01-13T22:29:05.716Z,3.37
2019-01-13T22:31:34.550Z,2.43
2019-01-13T22:34:03.348Z,2.07
2019-01-13T22:36:31.950Z,1.80
2019-01-13T22:38:59.827Z,1.57
2019-01-13T22:41:27.733Z,1.67
2019-01-13T22:43:55.599Z,2.03
2019-01-13T22:46:23.222Z,2.17
2019-01-13T22:48:50.807Z,2.43
2019-01-13T22:51:18.698Z,2.30
2019-01-13T22:53:46.465Z,3.13
2019-01-13T22:56:15.552Z,2.20
2019-01-13T22:58:44.945Z,3.77
2019-01-13T23:01:28.578Z,2.40
2019-01-13T23:04:00.811Z,3.07
2019-01-13T23:06:29.047Z,2.00
2019-01-13T23:08:57.317Z,2.07
2019-01-13T23:11:31.427Z,1.97
2019-01-13T23:13:59.592Z,1.60
2019-01-13T23:16:27.560Z,1.57
2019-01-13T23:18:55.809Z,1.17
2019-01-13T23:21:22.976Z,1.50
2019-01-13T23:23:50.075Z,1.53
2019-01-13T23:26:18.208Z,1.60
2019-01-13T23:28:45.502Z,1.33
2019-01-13T23:31:13.277Z,1.37
2019-01-13T23:33:41.697Z,1.83
2019-01-13T23:36:10.390Z,2.40
2019-01-13T23:38:38.659Z,2.87
2019-01-13T23:41:07.349Z,2.03
2019-01-13T23:43:35.621Z,1.67
2019-01-13T23:46:05.538Z,1.67
2019-01-13T23:48:33.901Z,1.80
2019-01-13T23:51:02.469Z,2.30
2019-01-13T23:53:30.214Z,1.90
2019-01-13T23:55:57.852Z,1.90
2019-01-13T23:58:25.041Z,1.67
